Time;durP1;ratioP1;P1;durP2;ratioP2;P2;SDS_P1;SDS_P2;PMS_P1;PMS_P2;Temp;Humidity;BMP_temperature;BMP_pressure;BME280_temperature;BME280_humidity;BME280_pressure;Samples;Min_cycle;Max_cycle;Signal;HPM_P1;HPM_P2
2022/07/22 00:00:59;;;;;;;;;;;;;;;25.96;59.31;101350.44;5066495;28;19920;-87
2022/07/22 00:03:25;;;;;;;;;;;;;;;25.97;59.33;101354.91;5060694;28;19932;-87
2022/07/22 00:05:50;;;;;;;;;;;;;;;25.96;59.49;101350.44;5068985;28;19916;-87
2022/07/22 00:08:15;;;;;;;;;;;;;;;25.97;59.41;101362.00;5087241;28;20050;-89
2022/07/22 00:10:41;;;;;;;;;;;;;;;25.97;59.22;101362.00;5063886;28;19955;-88
2022/07/22 00:13:08;;;;;;;;;;;;;;;25.95;59.13;101356.69;5069801;28;19916;-89
2022/07/22 00:15:33;;;;;;;;;;;;;;;25.97;59.16;101362.00;5059434;28;19913;-86
2022/07/22 00:17:58;;;;;;;;;;;;;;;25.97;59.06;101359.34;5058441;28;20412;-88
2022/07/22 00:20:24;;;;;;;;;;;;;;;25.94;59.46;101351.31;5065682;28;20305;-88
2022/07/22 00:22:49;;;;;;;;;;;;;;;25.92;59.44;101350.44;5065415;28;20278;-89
2022/07/22 00:25:15;;;;;;;;;;;;;;;25.93;59.20;101357.56;5081727;28;19912;-88
2022/07/22 00:27:40;;;;;;;;;;;;;;;25.94;59.26;101356.69;5059923;28;19923;-88
2022/07/22 00:30:06;;;;;;;;;;;;;;;25.91;59.42;101357.56;5082422;28;19932;-88
2022/07/22 00:32:32;;;;;;;;;;;;;;;25.90;59.15;101349.53;5088166;28;19916;-88
2022/07/22 00:34:58;;;;;;;;;;;;;;;25.91;59.37;101351.34;5079588;28;19999;-88
2022/07/22 00:37:27;;;;;;;;;;;;;;;25.92;59.14;101355.78;4974983;28;2066049;-88
2022/07/22 00:39:53;;;;;;;;;;;;;;;25.89;59.50;101353.13;5068702;28;19968;-88
2022/07/22 00:42:18;;;;;;;;;;;;;;;25.90;59.21;101346.88;5071087;28;19919;-87
2022/07/22 00:44:44;;;;;;;;;;;;;;;25.85;59.22;101353.97;5063068;28;19921;-87
2022/07/22 00:47:09;;;;;;;;;;;;;;;25.88;59.39;101352.16;5102861;28;19916;-87
2022/07/22 00:49:35;;;;;;;;;;;;;;;25.88;59.21;101343.25;5054373;28;19917;-88
2022/07/22 00:52:00;;;;;;;;;;;;;;;25.87;59.10;101350.41;5069672;28;20405;-89
2022/07/22 00:54:26;;;;;;;;;;;;;;;25.90;59.14;101344.19;5057225;28;19920;-88
2022/07/22 00:56:51;;;;;;;;;;;;;;;25.87;59.32;101344.16;5096669;28;20009;-88
2022/07/22 00:59:22;;;;;;;;;;;;;;;25.84;59.37;101347.72;5039940;28;19917;-90
2022/07/22 01:01:48;;;;;;;;;;;;;;;25.88;59.33;101352.16;5061663;28;20421;-88
2022/07/22 01:04:13;;;;;;;;;;;;;;;25.83;59.27;101342.38;5066961;28;19921;-90
2022/07/22 01:06:44;;;;;;;;;;;;;;;25.84;59.01;101350.38;5041216;28;19966;-86
2022/07/22 01:09:10;;;;;;;;;;;;;;;25.82;59.05;101340.59;5097002;28;19912;-88
2022/07/22 01:11:36;;;;;;;;;;;;;;;25.86;59.19;101342.38;5065531;28;19912;-88
2022/07/22 01:14:02;;;;;;;;;;;;;;;25.81;59.34;101337.03;5055612;28;19912;-89
2022/07/22 01:16:28;;;;;;;;;;;;;;;25.82;59.18;101343.25;5071692;28;20004;-88
2022/07/22 01:18:55;;;;;;;;;;;;;;;25.82;59.09;101336.13;5046649;28;20420;-88
2022/07/22 01:21:21;;;;;;;;;;;;;;;25.81;59.13;101334.34;5069854;28;19973;-87
2022/07/22 01:23:47;;;;;;;;;;;;;;;25.83;59.08;101337.03;5065842;28;19928;-88
2022/07/22 01:26:13;;;;;;;;;;;;;;;25.83;59.30;101339.72;5067355;28;19912;-87
2022/07/22 01:28:38;;;;;;;;;;;;;;;25.80;59.05;101329.88;5074137;28;20408;-87
2022/07/22 01:31:04;;;;;;;;;;;;;;;25.82;58.95;101327.19;5074791;28;19916;-86
2022/07/22 01:33:29;;;;;;;;;;;;;;;25.79;59.29;101317.41;5077370;28;19955;-86
2022/07/22 01:35:55;;;;;;;;;;;;;;;25.80;58.97;101320.09;5074006;28;19923;-87
2022/07/22 01:38:20;;;;;;;;;;;;;;;25.81;59.13;101320.97;5072480;28;19955;-87
2022/07/22 01:40:46;;;;;;;;;;;;;;;25.80;59.18;101316.50;5040365;28;20480;-87
2022/07/22 01:43:13;;;;;;;;;;;;;;;25.78;59.21;101315.59;5094736;28;19921;-87
2022/07/22 01:45:39;;;;;;;;;;;;;;;25.77;59.26;101320.06;5086063;28;20329;-87
2022/07/22 01:48:04;;;;;;;;;;;;;;;25.79;59.31;101322.75;5060831;28;19923;-87
2022/07/22 01:50:30;;;;;;;;;;;;;;;25.78;59.04;101318.28;5068359;28;19966;-86
2022/07/22 01:52:55;;;;;;;;;;;;;;;25.79;58.94;101317.41;5066000;28;19995;-87
2022/07/22 01:55:21;;;;;;;;;;;;;;;25.81;58.85;101318.28;5063536;28;19916;-87
2022/07/22 01:57:46;;;;;;;;;;;;;;;25.80;58.75;101313.81;5066058;28;19924;-87
2022/07/22 02:00:13;;;;;;;;;;;;;;;25.80;58.89;101314.72;5062874;28;19923;-87
2022/07/22 02:02:38;;;;;;;;;;;;;;;25.76;59.08;101310.28;5056321;28;19916;-86
2022/07/22 02:05:04;;;;;;;;;;;;;;;25.74;59.11;101311.16;5060112;28;19928;-87
2022/07/22 02:07:30;;;;;;;;;;;;;;;25.74;58.93;101314.72;5087388;28;19970;-88
2022/07/22 02:09:56;;;;;;;;;;;;;;;25.76;58.81;101320.97;5058365;28;20413;-87
2022/07/22 02:12:22;;;;;;;;;;;;;;;25.74;59.03;101324.53;5078924;28;19916;-88
2022/07/22 02:14:47;;;;;;;;;;;;;;;25.71;58.97;101322.75;5059365;28;20011;-87
2022/07/22 02:17:13;;;;;;;;;;;;;;;25.72;58.87;101321.88;5065676;28;19970;-87
2022/07/22 02:19:38;;;;;;;;;;;;;;;25.70;59.15;101323.66;5072653;28;19916;-88
2022/07/22 02:22:07;;;;;;;;;;;;;;;25.71;58.87;101321.84;5073045;28;19960;-89
2022/07/22 02:24:32;;;;;;;;;;;;;;;25.72;58.95;101318.31;5061216;28;19927;-88
2022/07/22 02:26:58;;;;;;;;;;;;;;;25.72;58.95;101318.31;5087059;28;19917;-88
2022/07/22 02:29:23;;;;;;;;;;;;;;;25.66;59.11;101312.94;5081105;28;20386;-88
2022/07/22 02:31:49;;;;;;;;;;;;;;;25.71;58.79;101305.81;5051914;28;20014;-89
2022/07/22 02:34:14;;;;;;;;;;;;;;;25.68;58.86;101314.72;5073315;28;19916;-88
2022/07/22 02:36:40;;;;;;;;;;;;;;;25.71;58.85;101319.19;5052579;28;19997;-89
2022/07/22 02:39:08;;;;;;;;;;;;;;;25.70;58.85;101312.06;5103987;28;20400;-88
2022/07/22 02:41:34;;;;;;;;;;;;;;;25.71;58.66;101313.81;5098810;28;20412;-89
2022/07/22 02:43:59;;;;;;;;;;;;;;;25.66;58.86;101307.59;5070508;28;19920;-88
2022/07/22 02:46:25;;;;;;;;;;;;;;;25.70;59.01;101315.63;5090296;28;19912;-88
2022/07/22 02:48:50;;;;;;;;;;;;;;;25.68;58.94;101316.50;5079199;28;19923;-89
2022/07/22 02:51:16;;;;;;;;;;;;;;;25.69;58.63;101305.78;5062027;28;19927;-88
2022/07/22 02:53:41;;;;;;;;;;;;;;;25.67;58.68;101307.56;5097614;28;19963;-88
2022/07/22 02:56:07;;;;;;;;;;;;;;;25.65;59.02;101313.81;5058945;28;19921;-87
2022/07/22 02:58:33;;;;;;;;;;;;;;;25.62;58.81;101303.13;5070825;28;19913;-87
2022/07/22 03:00:58;;;;;;;;;;;;;;;25.65;58.80;101298.66;5089351;28;20369;-87
2022/07/22 03:03:24;;;;;;;;;;;;;;;25.64;58.95;101306.69;5090294;28;19929;-87
2022/07/22 03:05:49;;;;;;;;;;;;;;;25.65;58.57;101311.16;5058988;28;19916;-87
2022/07/22 03:08:15;;;;;;;;;;;;;;;25.65;58.68;101314.72;5048378;28;20302;-87
2022/07/22 03:10:40;;;;;;;;;;;;;;;25.64;58.57;101312.94;5083649;28;20295;-87
2022/07/22 03:13:06;;;;;;;;;;;;;;;25.62;58.79;101313.84;5083925;28;20085;-86
2022/07/22 03:15:31;;;;;;;;;;;;;;;25.60;58.95;101316.50;5051343;28;20340;-86
2022/07/22 03:17:57;;;;;;;;;;;;;;;25.63;58.88;101313.81;5055357;28;20386;-85
2022/07/22 03:20:22;;;;;;;;;;;;;;;25.62;58.69;101317.38;5094312;28;20499;-86
2022/07/22 03:22:47;;;;;;;;;;;;;;;25.60;59.08;101313.81;5099258;28;19928;-85
2022/07/22 03:25:30;;;;;;;;;;;;;;;25.60;58.77;101309.34;5112609;28;20034;-86
2022/07/22 03:27:55;;;;;;;;;;;;;;;25.58;58.95;101307.59;5076274;28;19912;-86
2022/07/22 03:30:24;;;;;;;;;;;;;;;25.58;58.86;101313.81;5076735;28;20023;-86
2022/07/22 03:32:49;;;;;;;;;;;;;;;25.57;59.01;101309.38;5082406;28;19916;-86
2022/07/22 03:35:18;;;;;;;;;;;;;;;25.58;58.82;101308.47;5106754;27;19916;-85
2022/07/22 03:37:43;;;;;;;;;;;;;;;25.56;59.03;101306.69;5067389;28;19927;-85
2022/07/22 03:40:10;;;;;;;;;;;;;;;25.56;58.85;101310.25;5071953;28;19912;-85
2022/07/22 03:42:36;;;;;;;;;;;;;;;25.57;58.80;101311.16;5071916;28;20313;-84
2022/07/22 03:45:01;;;;;;;;;;;;;;;25.58;58.99;101312.94;5072724;28;19916;-86
2022/07/22 03:47:27;;;;;;;;;;;;;;;25.55;58.75;101315.63;5072502;28;19920;-85
2022/07/22 03:49:52;;;;;;;;;;;;;;;25.53;59.08;101317.41;5073855;28;20378;-85
2022/07/22 03:52:18;;;;;;;;;;;;;;;25.57;58.79;101320.06;5073009;28;20386;-85
2022/07/22 03:54:43;;;;;;;;;;;;;;;25.56;58.85;101317.38;5076605;28;19948;-84
2022/07/22 03:57:09;;;;;;;;;;;;;;;25.55;58.99;101315.63;5092686;28;19916;-85
2022/07/22 03:59:34;;;;;;;;;;;;;;;25.54;59.01;101322.72;5091725;28;20322;-84
2022/07/22 04:02:00;;;;;;;;;;;;;;;25.54;59.13;101317.38;5089196;28;19913;-85
2022/07/22 04:04:25;;;;;;;;;;;;;;;25.52;58.85;101321.84;5069248;28;20031;-85
2022/07/22 04:06:53;;;;;;;;;;;;;;;25.52;58.92;101311.13;5066665;28;19916;-86
2022/07/22 04:09:19;;;;;;;;;;;;;;;25.48;59.20;101314.69;5085269;28;19948;-83
2022/07/22 04:11:44;;;;;;;;;;;;;;;25.45;59.06;101317.38;5053993;28;19920;-84
2022/07/22 04:14:10;;;;;;;;;;;;;;;25.49;59.04;101307.59;5067788;28;19924;-84
2022/07/22 04:16:35;;;;;;;;;;;;;;;25.49;59.02;101315.59;5086655;28;19913;-85
2022/07/22 04:19:01;;;;;;;;;;;;;;;25.48;58.92;101311.13;5065544;28;19916;-85
2022/07/22 04:21:27;;;;;;;;;;;;;;;25.47;58.77;101317.38;5098729;28;19944;-84
2022/07/22 04:23:52;;;;;;;;;;;;;;;25.50;58.44;101318.25;5086471;28;19939;-85
2022/07/22 04:26:18;;;;;;;;;;;;;;;25.52;58.80;101315.59;5069396;28;19920;-85
2022/07/22 04:28:43;;;;;;;;;;;;;;;25.49;58.98;101318.28;5053470;28;19924;-87
2022/07/22 04:31:08;;;;;;;;;;;;;;;25.52;58.79;101323.63;5062748;28;20366;-84
2022/07/22 04:33:34;;;;;;;;;;;;;;;25.45;58.84;101317.38;5094861;28;19971;-87
2022/07/22 04:36:00;;;;;;;;;;;;;;;25.47;58.90;101318.28;5061359;28;19975;-87
2022/07/22 04:38:26;;;;;;;;;;;;;;;25.47;58.69;101320.94;5061128;28;19920;-87
2022/07/22 04:40:51;;;;;;;;;;;;;;;25.46;58.82;101327.16;5087821;28;20436;-86
2022/07/22 04:43:17;;;;;;;;;;;;;;;25.45;58.84;101343.22;5085812;28;19927;-87
2022/07/22 04:45:42;;;;;;;;;;;;;;;25.45;58.94;101324.50;5086212;28;19917;-88
2022/07/22 04:48:08;;;;;;;;;;;;;;;25.45;58.87;101332.53;5058002;28;19921;-87
2022/07/22 04:50:35;;;;;;;;;;;;;;;25.43;58.84;101328.97;5052204;28;20310;-86
2022/07/22 04:53:01;;;;;;;;;;;;;;;25.47;58.72;101333.44;5088646;28;19969;-87
2022/07/22 04:55:26;;;;;;;;;;;;;;;25.48;58.71;101335.19;5070576;28;19951;-82
2022/07/22 04:57:51;;;;;;;;;;;;;;;25.47;58.90;101331.66;5088918;28;19967;-82
2022/07/22 05:00:17;;;;;;;;;;;;;;;25.46;59.01;101335.19;5065644;28;19916;-82
2022/07/22 05:02:42;;;;;;;;;;;;;;;25.45;58.90;101340.56;5065220;28;20393;-84
2022/07/22 05:05:08;;;;;;;;;;;;;;;25.45;59.02;101333.41;5069353;28;19917;-87
2022/07/22 05:07:33;;;;;;;;;;;;;;;25.44;58.82;101339.63;5056132;28;20405;-84
2022/07/22 05:09:59;;;;;;;;;;;;;;;25.45;58.85;101341.44;5058322;28;19960;-84
2022/07/22 05:12:24;;;;;;;;;;;;;;;25.47;58.63;101330.75;5058503;28;19999;-85
2022/07/22 05:14:50;;;;;;;;;;;;;;;25.48;58.27;101341.44;5060411;28;19916;-86
2022/07/22 05:17:15;;;;;;;;;;;;;;;25.48;58.38;101345.91;5072493;28;19944;-86
2022/07/22 05:19:40;;;;;;;;;;;;;;;25.47;58.63;101341.47;5060753;28;19916;-86
2022/07/22 05:22:06;;;;;;;;;;;;;;;25.46;58.67;101329.84;5073436;28;19913;-84
2022/07/22 05:24:32;;;;;;;;;;;;;;;25.46;58.50;101332.50;5081992;28;19921;-85
2022/07/22 05:26:57;;;;;;;;;;;;;;;25.46;58.72;101331.63;5065719;28;19917;-86
2022/07/22 05:29:23;;;;;;;;;;;;;;;25.47;58.34;101336.09;5085889;28;19913;-87
2022/07/22 05:31:50;;;;;;;;;;;;;;;25.48;58.32;101336.09;5104250;28;19920;-89
2022/07/22 05:34:15;;;;;;;;;;;;;;;25.47;58.21;101337.00;5062430;28;19920;-89
2022/07/22 05:36:41;;;;;;;;;;;;;;;25.45;58.60;101329.84;5066889;28;19927;-86
2022/07/22 05:39:06;;;;;;;;;;;;;;;25.45;58.76;101336.09;5065104;28;19970;-86
2022/07/22 05:41:32;;;;;;;;;;;;;;;25.46;58.60;101332.50;5083244;28;19912;-89
2022/07/22 05:43:57;;;;;;;;;;;;;;;25.45;58.59;101336.09;5067769;28;19929;-89
2022/07/22 05:46:23;;;;;;;;;;;;;;;25.41;58.76;101336.97;5089446;28;19927;-89
2022/07/22 05:48:48;;;;;;;;;;;;;;;25.32;59.14;101340.53;5053010;28;20371;-89
2022/07/22 05:51:14;;;;;;;;;;;;;;;25.38;58.99;101334.31;5053712;28;19913;-88
2022/07/22 05:53:41;;;;;;;;;;;;;;;25.36;58.79;101331.63;5087904;28;20016;-87
2022/07/22 05:56:07;;;;;;;;;;;;;;;25.34;58.86;101330.72;5104496;27;20395;-88
2022/07/22 05:58:32;;;;;;;;;;;;;;;25.37;59.99;101335.19;5078177;28;19998;-87
2022/07/22 06:00:58;;;;;;;;;;;;;;;25.40;60.61;101327.19;5071955;28;20297;-85
2022/07/22 06:03:24;;;;;;;;;;;;;;;25.20;61.28;101324.44;5095411;28;19923;-86
2022/07/22 06:05:49;;;;;;;;;;;;;;;25.24;61.19;101330.72;5061650;28;19924;-89
2022/07/22 06:08:15;;;;;;;;;;;;;;;25.33;60.90;101333.38;5092581;28;19995;-89
2022/07/22 06:10:40;;;;;;;;;;;;;;;25.34;60.93;101325.38;5060246;28;19913;-89
2022/07/22 06:13:05;;;;;;;;;;;;;;;25.25;60.61;101324.47;5074490;28;19917;-88
2022/07/22 06:15:31;;;;;;;;;;;;;;;25.31;61.01;101330.69;5080186;28;19968;-88
2022/07/22 06:17:56;;;;;;;;;;;;;;;25.37;60.78;101330.72;5063002;28;19920;-88
2022/07/22 06:20:25;;;;;;;;;;;;;;;25.33;60.19;101328.03;5057081;28;19924;-88
2022/07/22 06:22:50;;;;;;;;;;;;;;;25.35;60.51;101328.94;5071306;28;19966;-88
2022/07/22 06:25:16;;;;;;;;;;;;;;;25.33;60.51;101323.56;5097807;28;19916;-88
2022/07/22 06:27:41;;;;;;;;;;;;;;;25.38;59.72;101324.50;5083224;28;19923;-86
2022/07/22 06:30:08;;;;;;;;;;;;;;;25.31;60.01;101320.00;5069527;28;19927;-91
2022/07/22 06:32:35;;;;;;;;;;;;;;;25.41;61.08;101309.34;5094019;28;20003;-92
2022/07/22 06:35:01;;;;;;;;;;;;;;;25.43;62.45;101307.56;5068798;28;20402;-90
2022/07/22 06:37:26;;;;;;;;;;;;;;;25.23;62.84;101308.44;5063096;28;19921;-85
2022/07/22 06:39:52;;;;;;;;;;;;;;;25.34;63.19;101309.34;5066284;28;20396;-87
2022/07/22 06:42:17;;;;;;;;;;;;;;;25.30;62.53;101306.66;5060584;28;20322;-87
2022/07/22 06:44:43;;;;;;;;;;;;;;;25.32;62.19;101311.13;5059497;28;20070;-86
2022/07/22 06:47:08;;;;;;;;;;;;;;;25.33;61.99;101310.22;5068037;28;20302;-87
2022/07/22 06:49:34;;;;;;;;;;;;;;;25.37;61.34;101306.66;5071475;28;19978;-86
2022/07/22 06:52:01;;;;;;;;;;;;;;;25.38;61.36;101303.13;5069726;28;19920;-86
2022/07/22 06:54:27;;;;;;;;;;;;;;;25.40;61.05;101300.44;5069607;28;19916;-87
2022/07/22 06:56:52;;;;;;;;;;;;;;;25.43;60.67;101303.13;5107926;28;19986;-85
2022/07/22 06:59:18;;;;;;;;;;;;;;;25.41;60.94;101310.22;5051604;28;19920;-88
2022/07/22 07:01:43;;;;;;;;;;;;;;;25.43;60.91;101305.78;5051243;28;19924;-86
2022/07/22 07:04:09;;;;;;;;;;;;;;;25.41;60.81;101310.22;5092316;28;19917;-87
2022/07/22 07:06:34;;;;;;;;;;;;;;;25.41;60.99;101302.22;5111407;27;19920;-87
2022/07/22 07:09:00;;;;;;;;;;;;;;;25.42;60.88;101306.69;5075826;28;20003;-86
2022/07/22 07:11:25;;;;;;;;;;;;;;;25.43;60.66;101315.59;5067338;28;20386;-86
2022/07/22 07:13:51;;;;;;;;;;;;;;;25.43;60.86;101304.91;5075175;28;19963;-86
2022/07/22 07:16:16;;;;;;;;;;;;;;;25.43;60.70;101307.56;5099980;28;19913;-87
2022/07/22 07:18:42;;;;;;;;;;;;;;;25.46;61.01;101310.22;5074972;28;19924;-87
2022/07/22 07:21:07;;;;;;;;;;;;;;;25.45;60.81;101311.16;5075790;28;19917;-87
2022/07/22 07:23:33;;;;;;;;;;;;;;;25.46;60.97;101310.22;5067794;28;19916;-86
2022/07/22 07:25:58;;;;;;;;;;;;;;;25.51;60.90;101314.72;5095906;28;19967;-85
2022/07/22 07:28:24;;;;;;;;;;;;;;;25.49;60.92;101319.16;5108323;28;19917;-86
2022/07/22 07:30:50;;;;;;;;;;;;;;;25.48;60.89;101321.84;5072127;28;19944;-87
2022/07/22 07:33:16;;;;;;;;;;;;;;;25.49;61.02;101319.16;5111172;28;19986;-89
2022/07/22 07:35:56;;;;;;;;;;;;;;;25.49;60.85;101321.84;5101721;28;20363;-87
2022/07/22 07:38:22;;;;;;;;;;;;;;;25.50;61.01;101328.97;5070503;28;19920;-85
2022/07/22 07:40:48;;;;;;;;;;;;;;;25.48;61.39;101325.38;5079881;28;19921;-87
2022/07/22 07:43:13;;;;;;;;;;;;;;;25.53;61.17;101328.09;5085100;28;19970;-87
2022/07/22 07:46:00;;;;;;;;;;;;;;;25.52;61.11;101332.53;5074511;28;20389;-87
2022/07/22 07:48:26;;;;;;;;;;;;;;;25.51;61.28;101330.75;5078470;28;19947;-86
2022/07/22 07:50:51;;;;;;;;;;;;;;;25.52;61.44;101328.97;5083143;28;20039;-86
2022/07/22 07:53:17;;;;;;;;;;;;;;;25.50;61.40;101336.97;5076895;28;19952;-86
2022/07/22 07:55:42;;;;;;;;;;;;;;;25.51;61.15;101333.44;5087277;28;20394;-86
2022/07/22 07:58:07;;;;;;;;;;;;;;;25.55;61.63;101337.00;5087516;28;19970;-86
2022/07/22 08:00:34;;;;;;;;;;;;;;;25.56;61.36;101342.34;5085507;28;19912;-86
2022/07/22 08:03:00;;;;;;;;;;;;;;;25.59;61.52;101339.69;5066521;28;19912;-86
2022/07/22 08:05:25;;;;;;;;;;;;;;;25.58;61.57;101345.03;5091689;28;19927;-85
2022/07/22 08:07:55;;;;;;;;;;;;;;;25.54;61.47;101349.47;5074225;28;19912;-85
2022/07/22 08:10:21;;;;;;;;;;;;;;;25.56;61.66;101341.47;5070784;28;19912;-86
2022/07/22 08:12:47;;;;;;;;;;;;;;;25.55;61.63;101347.72;5073943;28;20508;-86
2022/07/22 08:15:13;;;;;;;;;;;;;;;25.56;61.49;101350.38;5065201;28;19916;-86
2022/07/22 08:17:38;;;;;;;;;;;;;;;25.57;61.78;101351.28;5093362;28;19923;-86
2022/07/22 08:20:05;;;;;;;;;;;;;;;25.60;62.19;101348.59;5087058;28;20393;-88
2022/07/22 08:22:30;;;;;;;;;;;;;;;25.62;61.79;101353.97;5061346;28;19923;-87
2022/07/22 08:24:58;;;;;;;;;;;;;;;25.63;61.82;101351.25;5085432;28;19920;-87
2022/07/22 08:27:24;;;;;;;;;;;;;;;25.63;61.80;101348.59;5069212;28;19920;-87
2022/07/22 08:29:51;;;;;;;;;;;;;;;25.63;61.84;101345.03;5075476;28;19917;-91
2022/07/22 08:32:16;;;;;;;;;;;;;;;25.62;62.03;101346.81;5076496;28;19913;-86
2022/07/22 08:34:42;;;;;;;;;;;;;;;25.63;62.15;101343.22;5072655;28;19913;-88
2022/07/22 08:37:08;;;;;;;;;;;;;;;25.65;62.06;101343.25;5055453;28;19981;-88
2022/07/22 08:39:36;;;;;;;;;;;;;;;25.65;62.19;101348.59;5101324;28;19916;-90
2022/07/22 08:42:02;;;;;;;;;;;;;;;25.71;61.97;101348.59;5074529;28;19912;-88
2022/07/22 08:44:36;;;;;;;;;;;;;;;25.66;62.19;101350.41;5052331;28;20325;-88
2022/07/22 08:47:01;;;;;;;;;;;;;;;25.68;62.02;101348.63;5090411;28;19917;-86
2022/07/22 08:49:30;;;;;;;;;;;;;;;25.68;62.07;101346.81;5053523;28;20396;-89
2022/07/22 08:51:56;;;;;;;;;;;;;;;25.70;61.91;101350.41;5090454;28;19916;-89
2022/07/22 08:54:21;;;;;;;;;;;;;;;25.70;62.17;101341.50;5105653;27;19973;-89
2022/07/22 08:56:50;;;;;;;;;;;;;;;25.69;61.85;101351.28;5079705;28;19916;-87
2022/07/22 08:59:16;;;;;;;;;;;;;;;25.70;62.07;101350.41;5067860;28;19912;-89
2022/07/22 09:02:02;;;;;;;;;;;;;;;25.70;61.72;101346.84;5080990;28;19969;-86
2022/07/22 09:04:29;;;;;;;;;;;;;;;25.71;61.88;101345.94;5058745;28;20043;-87
2022/07/22 09:06:55;;;;;;;;;;;;;;;25.77;61.33;101351.28;5056575;28;19924;-86
2022/07/22 09:09:29;;;;;;;;;;;;;;;25.77;61.24;101348.59;5070131;28;19916;-87
2022/07/22 09:12:03;;;;;;;;;;;;;;;25.72;61.58;101351.28;5082763;28;19973;-87
2022/07/22 09:14:31;;;;;;;;;;;;;;;25.82;61.35;101340.59;5097796;28;19916;-86
2022/07/22 09:17:07;;;;;;;;;;;;;;;25.81;61.28;101347.72;5076280;28;19923;-86
2022/07/22 09:19:33;;;;;;;;;;;;;;;25.81;61.37;101342.38;5052082;28;20317;-86
2022/07/22 09:21:58;;;;;;;;;;;;;;;25.79;61.40;101341.47;5087726;28;19927;-86
2022/07/22 09:24:32;;;;;;;;;;;;;;;25.79;61.54;101341.47;5049183;28;19978;-86
2022/07/22 09:26:57;;;;;;;;;;;;;;;25.83;61.12;101348.63;5092982;28;19970;-87
2022/07/22 09:29:27;;;;;;;;;;;;;;;25.82;61.29;101348.59;5049179;28;19983;-85
2022/07/22 09:31:52;;;;;;;;;;;;;;;25.80;61.66;101346.84;5071802;28;20069;-85
2022/07/22 09:34:34;;;;;;;;;;;;;;;25.91;61.51;101344.19;5082961;28;19947;-86
2022/07/22 09:36:59;;;;;;;;;;;;;;;25.89;61.03;101345.09;5060417;28;19975;-89
2022/07/22 09:39:39;;;;;;;;;;;;;;;25.86;60.93;101345.03;5071352;28;19935;-87
2022/07/22 09:42:06;;;;;;;;;;;;;;;25.85;60.80;101337.91;5080918;28;19919;-87
2022/07/22 09:44:34;;;;;;;;;;;;;;;25.89;60.00;101339.75;5070280;28;19917;-86
2022/07/22 09:47:00;;;;;;;;;;;;;;;25.87;60.01;101337.03;5071831;28;19913;-87
2022/07/22 09:49:36;;;;;;;;;;;;;;;25.97;59.53;101332.56;5093763;28;20010;-91
2022/07/22 09:52:07;;;;;;;;;;;;;;;26.10;59.23;101336.13;5070461;28;20443;-86
2022/07/22 09:54:33;;;;;;;;;;;;;;;26.00;59.67;101332.59;5087505;28;19986;-87
2022/07/22 09:57:09;;;;;;;;;;;;;;;26.06;59.62;101337.94;5048388;28;20590;-88
2022/07/22 09:59:44;;;;;;;;;;;;;;;25.91;59.52;101336.16;5070572;28;19994;-88
2022/07/22 10:02:10;;;;;;;;;;;;;;;26.09;59.05;101329.91;5080000;28;19920;-91
2022/07/22 10:04:44;;;;;;;;;;;;;;;26.24;59.20;101328.97;5084524;28;19920;-94
2022/07/22 10:07:10;;;;;;;;;;;;;;;26.19;58.88;101339.69;5072953;28;19916;-91
2022/07/22 10:09:35;;;;;;;;;;;;;;;26.08;58.92;101343.31;5052871;28;20019;-89
2022/07/22 10:12:01;;;;;;;;;;;;;;;26.03;59.55;101334.38;5082485;28;19912;-86
2022/07/22 10:14:28;;;;;;;;;;;;;;;26.11;59.25;101335.25;5091262;28;19923;-85
2022/07/22 10:16:53;;;;;;;;;;;;;;;26.10;59.47;101342.41;5070778;28;20007;-87
2022/07/22 10:19:19;;;;;;;;;;;;;;;26.09;59.60;101337.91;5055586;28;20006;-86
2022/07/22 10:21:44;;;;;;;;;;;;;;;26.08;59.58;101337.94;5095853;28;19917;-86
2022/07/22 10:24:14;;;;;;;;;;;;;;;26.03;59.78;101332.56;5066871;28;20305;-85
2022/07/22 10:27:06;;;;;;;;;;;;;;;26.05;59.50;101329.91;5069816;28;19920;-84
2022/07/22 10:29:31;;;;;;;;;;;;;;;26.08;59.90;101332.59;5058993;28;20008;-86
2022/07/22 10:32:15;;;;;;;;;;;;;;;26.08;59.75;101332.59;5059407;28;19977;-87
2022/07/22 10:34:44;;;;;;;;;;;;;;;26.06;59.95;101335.25;5062453;28;19916;-87
2022/07/22 10:37:28;;;;;;;;;;;;;;;26.07;59.75;101322.75;5093225;28;20016;-90
2022/07/22 10:40:12;;;;;;;;;;;;;;;26.02;59.72;101322.78;5085271;28;19988;-86
2022/07/22 10:42:56;;;;;;;;;;;;;;;26.00;60.01;101321.88;5067704;28;19917;-85
2022/07/22 10:45:26;;;;;;;;;;;;;;;25.76;58.55;101320.06;5065823;28;20517;-85
2022/07/22 10:47:52;;;;;;;;;;;;;;;25.88;60.09;101319.19;5073028;28;20397;-85
2022/07/22 10:50:37;;;;;;;;;;;;;;;25.93;59.81;101317.41;5064968;28;19917;-86
2022/07/22 10:53:21;;;;;;;;;;;;;;;25.92;59.45;101319.19;5056886;28;20398;-86
2022/07/22 10:56:07;;;;;;;;;;;;;;;25.99;58.79;101318.31;5057289;28;19913;-86
2022/07/22 10:58:32;;;;;;;;;;;;;;;26.04;59.17;101321.00;5055716;28;19916;-86
2022/07/22 11:01:03;;;;;;;;;;;;;;;26.00;59.45;101325.44;5063274;28;19921;-86
2022/07/22 11:03:29;;;;;;;;;;;;;;;26.00;59.30;101329.91;5048569;28;19924;-87
2022/07/22 11:05:55;;;;;;;;;;;;;;;26.04;59.57;101328.13;5088250;28;20413;-86
2022/07/22 11:08:21;;;;;;;;;;;;;;;26.00;59.16;101325.44;5076310;28;19938;-86
2022/07/22 11:10:50;;;;;;;;;;;;;;;26.00;59.11;101327.25;5071296;28;20434;-86
2022/07/22 11:13:34;;;;;;;;;;;;;;;25.99;59.23;101328.13;5083547;28;19916;-87
2022/07/22 11:16:19;;;;;;;;;;;;;;;25.99;59.13;101323.69;5062785;28;19917;-87
2022/07/22 11:18:48;;;;;;;;;;;;;;;26.03;59.21;101326.34;5072650;28;19999;-87
2022/07/22 11:21:17;;;;;;;;;;;;;;;26.03;59.38;101321.88;5093509;28;20301;-87
2022/07/22 11:23:47;;;;;;;;;;;;;;;26.03;59.35;101324.53;5095099;28;19916;-86
2022/07/22 11:26:13;;;;;;;;;;;;;;;26.04;59.38;101317.44;5097537;28;20318;-87
2022/07/22 11:28:39;;;;;;;;;;;;;;;26.08;58.95;101319.22;5062928;28;19928;-87
2022/07/22 11:31:06;;;;;;;;;;;;;;;26.06;59.01;101327.25;5048199;28;19920;-85
2022/07/22 11:33:31;;;;;;;;;;;;;;;26.08;58.79;101328.13;5069420;28;20341;-87
2022/07/22 11:36:02;;;;;;;;;;;;;;;26.07;58.88;101329.00;5088874;28;19913;-86
2022/07/22 11:38:48;;;;;;;;;;;;;;;26.05;58.98;101327.22;5052274;28;20333;-86
2022/07/22 11:41:14;;;;;;;;;;;;;;;26.05;58.88;101320.09;5042587;28;19913;-85
2022/07/22 11:43:40;;;;;;;;;;;;;;;26.04;58.87;101321.00;5079270;28;19957;-88
2022/07/22 11:46:06;;;;;;;;;;;;;;;26.06;58.85;101321.88;5041180;28;19913;-87
2022/07/22 11:48:31;;;;;;;;;;;;;;;26.05;58.90;101319.19;5064152;28;19967;-86
2022/07/22 11:51:01;;;;;;;;;;;;;;;26.05;58.72;101322.75;5059955;28;19914;-86
2022/07/22 11:53:26;;;;;;;;;;;;;;;26.10;58.50;101326.34;5044681;28;19912;-86
2022/07/22 11:55:55;;;;;;;;;;;;;;;26.14;58.33;101325.44;5054113;28;19978;-86
2022/07/22 11:58:33;;;;;;;;;;;;;;;26.12;58.41;101312.94;5076803;28;19912;-86
2022/07/22 12:00:58;;;;;;;;;;;;;;;26.11;58.47;101317.41;5051041;28;19923;-86
2022/07/22 12:03:24;;;;;;;;;;;;;;;26.16;58.26;101309.34;5053588;28;19917;-86
2022/07/22 12:05:49;;;;;;;;;;;;;;;26.18;58.17;101311.16;5050679;28;20289;-86
2022/07/22 12:08:14;;;;;;;;;;;;;;;26.15;58.34;101315.63;5069591;28;20374;-85
2022/07/22 12:10:41;;;;;;;;;;;;;;;26.17;58.06;101312.03;5085784;28;19913;-86
2022/07/22 12:13:06;;;;;;;;;;;;;;;26.18;58.28;101307.56;5052799;28;19920;-87
2022/07/22 12:15:32;;;;;;;;;;;;;;;26.18;57.94;101313.84;5071298;28;19913;-87
2022/07/22 12:18:14;;;;;;;;;;;;;;;26.19;57.99;101320.06;5033634;28;19948;-86
2022/07/22 12:20:43;;;;;;;;;;;;;;;26.18;57.83;101300.47;5033910;28;19920;-86
2022/07/22 12:23:09;;;;;;;;;;;;;;;26.18;57.76;101303.13;5038534;28;19916;-86
2022/07/22 12:25:48;;;;;;;;;;;;;;;26.19;57.99;101306.69;5053819;28;20360;-85
2022/07/22 12:28:14;;;;;;;;;;;;;;;26.23;57.66;101307.59;5054804;28;19936;-86
2022/07/22 12:30:39;;;;;;;;;;;;;;;26.22;57.74;101311.16;5058075;28;19913;-87
2022/07/22 12:33:04;;;;;;;;;;;;;;;26.19;57.88;101307.56;5047853;28;19921;-86
2022/07/22 12:35:30;;;;;;;;;;;;;;;26.20;57.50;101301.34;5085874;28;19973;-87